createdAt,value
2018-11-20T00:01:53.391Z,-1.10
2018-11-20T00:08:07.582Z,-1.10
2018-11-20T00:11:11.824Z,-1.10
2018-11-20T00:17:19.813Z,-1.10
2018-11-20T00:20:27.009Z,-1.20
2018-11-20T00:23:15.560Z,-1.20
2018-11-20T00:29:11.738Z,-1.20
2018-11-20T00:38:26.328Z,-1.00
2018-11-20T00:41:28.978Z,-1.00
2018-11-20T00:47:25.572Z,-1.00
2018-11-20T00:53:40.698Z,-1.00
2018-11-20T00:56:43.102Z,-1.10
2018-11-20T00:59:41.292Z,-1.10
2018-11-20T01:02:40.500Z,-1.10
2018-11-20T01:11:50.524Z,-1.00
2018-11-20T01:14:44.987Z,-1.00
2018-11-20T01:17:42.915Z,-1.00
2018-11-20T01:23:32.888Z,-0.90
2018-11-20T01:26:22.687Z,-0.90
2018-11-20T01:29:32.939Z,-1.00
2018-11-20T01:35:24.941Z,-1.00
2018-11-20T01:38:14.390Z,-0.90
2018-11-20T01:41:24.874Z,-1.00
2018-11-20T01:47:49.567Z,-1.00
2018-11-20T01:50:49.779Z,-1.00
2018-11-20T01:53:38.271Z,-1.00
2018-11-20T01:56:37.727Z,-1.00
2018-11-20T01:59:40.508Z,-1.10
2018-11-20T02:05:39.644Z,-1.10
2018-11-20T02:08:28.180Z,-1.10
2018-11-20T02:11:26.908Z,-1.20
2018-11-20T02:14:38.902Z,-1.10
2018-11-20T02:17:41.778Z,-1.20
2018-11-20T02:20:30.997Z,-1.10
2018-11-20T02:23:21.703Z,-1.10
2018-11-20T02:26:10.668Z,-1.10
2018-11-20T02:28:59.294Z,-1.10
2018-11-20T02:34:52.807Z,-1.20
2018-11-20T02:40:54.972Z,-1.20
2018-11-20T02:46:23.538Z,-1.20
2018-11-20T02:51:46.956Z,-1.10
2018-11-20T02:54:35.434Z,-1.00
2018-11-20T03:00:45.894Z,-1.10
2018-11-20T03:03:34.635Z,-1.10
2018-11-20T03:09:53.861Z,-1.00
2018-11-20T03:12:48.548Z,-1.00
2018-11-20T03:18:28.764Z,-1.10
2018-11-20T03:21:17.403Z,-1.10
2018-11-20T03:23:58.089Z,-1.10
2018-11-20T03:26:58.065Z,-1.10
2018-11-20T03:30:16.002Z,-1.10
2018-11-20T03:33:04.393Z,-1.00
2018-11-20T03:35:44.885Z,-1.00
2018-11-20T03:38:48.610Z,-1.00
2018-11-20T03:41:48.873Z,-1.00
2018-11-20T03:47:13.036Z,-1.00
2018-11-20T03:49:53.901Z,-1.10
2018-11-20T03:53:01.257Z,-1.10
2018-11-20T03:55:51.177Z,-1.10
2018-11-20T03:58:51.884Z,-1.00
2018-11-20T04:04:55.839Z,-1.00
2018-11-20T04:08:09.074Z,-1.00
2018-11-20T04:11:06.070Z,-1.10
2018-11-20T04:13:54.539Z,-1.00
2018-11-20T04:16:42.966Z,-1.00
2018-11-20T04:19:39.447Z,-1.00
2018-11-20T04:22:39.070Z,-1.10
2018-11-20T04:25:20.115Z,-1.00
2018-11-20T04:28:10.677Z,-1.00
2018-11-20T04:30:51.480Z,-1.00
2018-11-20T04:33:54.812Z,-0.90
2018-11-20T04:37:00.780Z,-0.90
2018-11-20T04:42:58.065Z,-0.90
2018-11-20T04:46:07.652Z,-0.90
2018-11-20T04:48:56.899Z,-0.80
2018-11-20T04:55:05.526Z,-0.70
2018-11-20T04:58:03.238Z,-0.70
2018-11-20T05:01:04.023Z,-0.80
2018-11-20T05:04:04.141Z,-0.80
2018-11-20T05:07:05.656Z,-0.80
2018-11-20T05:10:05.397Z,-0.80
2018-11-20T05:12:58.275Z,-0.80
2018-11-20T05:18:46.879Z,-0.80
2018-11-20T05:21:49.899Z,-0.80
2018-11-20T05:24:30.672Z,-0.80
2018-11-20T05:27:31.412Z,-0.70
2018-11-20T05:30:31.366Z,-0.70
2018-11-20T05:33:13.739Z,-0.80
2018-11-20T05:39:30.506Z,-0.70
2018-11-20T05:45:07.952Z,-0.80
2018-11-20T05:48:16.610Z,-0.80
2018-11-20T05:51:04.245Z,-0.70
2018-11-20T05:57:31.835Z,-0.70
2018-11-20T06:00:16.191Z,-0.60
2018-11-20T06:03:16.351Z,-0.70
2018-11-20T06:09:19.471Z,-0.60
2018-11-20T06:12:19.408Z,-0.60
2018-11-20T06:15:20.181Z,-0.60
2018-11-20T06:18:20.533Z,-0.60
2018-11-20T06:21:20.169Z,-0.60
2018-11-20T06:24:12.497Z,-0.70
2018-11-20T06:27:00.936Z,-0.60
2018-11-20T06:29:49.385Z,-0.70
2018-11-20T06:32:49.052Z,-0.70
2018-11-20T06:35:38.297Z,-0.70
2018-11-20T06:38:37.994Z,-0.70
2018-11-20T06:41:38.396Z,-0.70
2018-11-20T06:44:37.920Z,-0.60
2018-11-20T06:47:37.800Z,-0.60
2018-11-20T06:50:37.731Z,-0.60
2018-11-20T06:56:28.867Z,-0.50
2018-11-20T06:59:28.905Z,-0.50
2018-11-20T07:02:17.356Z,-0.40
2018-11-20T07:05:25.263Z,-0.30
2018-11-20T07:08:24.996Z,-0.40
2018-11-20T07:11:31.149Z,-0.40
2018-11-20T07:14:31.135Z,-0.30
2018-11-20T07:17:37.434Z,-0.30
2018-11-20T07:20:21.394Z,-0.30
2018-11-20T07:23:22.266Z,-0.20
2018-11-20T07:26:14.355Z,-0.10
2018-11-20T07:28:53.864Z,-0.10
2018-11-20T07:31:42.494Z,0.00
2018-11-20T07:34:50.197Z,0.10
2018-11-20T07:37:49.779Z,0.20
2018-11-20T07:40:38.343Z,0.20
2018-11-20T07:46:50.701Z,0.10
2018-11-20T07:49:44.712Z,0.00
2018-11-20T07:52:44.323Z,0.10
2018-11-20T07:55:44.523Z,0.20
2018-11-20T07:58:47.455Z,0.20
2018-11-20T08:01:47.679Z,0.30
2018-11-20T08:04:39.494Z,0.40
2018-11-20T08:10:48.204Z,0.70
2018-11-20T08:13:48.701Z,0.70
2018-11-20T08:16:48.767Z,0.90
2018-11-20T08:19:49.036Z,0.90
2018-11-20T08:22:49.411Z,1.00
2018-11-20T08:25:49.736Z,1.00
2018-11-20T08:31:41.942Z,0.90
2018-11-20T08:34:49.386Z,0.80
2018-11-20T08:37:49.061Z,0.70
2018-11-20T08:40:48.995Z,0.90
2018-11-20T08:43:51.405Z,1.00
2018-11-20T08:46:49.136Z,1.10
2018-11-20T08:49:48.985Z,1.20
2018-11-20T08:52:47.450Z,1.30
2018-11-20T08:55:48.771Z,1.30
2018-11-20T08:58:49.025Z,1.40
2018-11-20T09:01:52.020Z,1.50
2018-11-20T09:04:47.037Z,1.60
2018-11-20T09:07:47.345Z,1.70
2018-11-20T09:10:47.519Z,1.70
2018-11-20T09:13:47.521Z,1.50
2018-11-20T09:16:47.741Z,1.50
2018-11-20T09:19:47.361Z,1.60
2018-11-20T09:22:53.004Z,1.70
2018-11-20T09:25:51.506Z,1.80
2018-11-20T09:28:51.962Z,2.10
2018-11-20T09:31:51.854Z,2.20
2018-11-20T09:34:57.453Z,2.30
2018-11-20T09:37:48.678Z,2.40
2018-11-20T09:40:48.716Z,2.50
2018-11-20T09:43:48.644Z,2.50
2018-11-20T09:46:48.721Z,2.50
2018-11-20T09:49:54.724Z,2.70
2018-11-20T09:52:54.163Z,2.60
2018-11-20T09:55:53.700Z,2.40
2018-11-20T09:58:42.265Z,2.30
2018-11-20T10:01:42.198Z,2.40
2018-11-20T10:04:42.287Z,2.50
2018-11-20T10:07:41.937Z,2.70
2018-11-20T10:10:45.064Z,2.70
2018-11-20T10:13:45.012Z,2.90
2018-11-20T10:16:44.626Z,2.90
2018-11-20T10:19:50.937Z,2.90
2018-11-20T10:22:50.716Z,2.60
2018-11-20T10:25:53.841Z,2.60
2018-11-20T10:28:42.671Z,2.70
2018-11-20T10:31:42.764Z,2.70
2018-11-20T10:34:42.621Z,2.70
2018-11-20T10:40:47.824Z,3.00
2018-11-20T10:43:50.636Z,3.10
2018-11-20T10:46:45.725Z,3.30
2018-11-20T10:49:45.977Z,3.50
2018-11-20T10:52:45.683Z,3.90
2018-11-20T10:55:35.481Z,4.20
2018-11-20T10:58:35.888Z,4.10
2018-11-20T11:01:35.378Z,4.20
2018-11-20T11:04:33.467Z,4.00
2018-11-20T11:07:33.658Z,3.60
2018-11-20T11:10:29.252Z,3.50
2018-11-20T11:13:28.043Z,3.40
2018-11-20T11:16:27.821Z,3.30
2018-11-20T11:19:27.536Z,3.30
2018-11-20T11:22:24.819Z,3.60
2018-11-20T11:28:18.887Z,4.50
2018-11-20T11:31:26.338Z,4.60
2018-11-20T11:34:26.299Z,4.50
2018-11-20T11:37:26.305Z,4.90
2018-11-20T11:40:26.204Z,5.10
2018-11-20T11:43:28.154Z,4.80
2018-11-20T11:49:42.645Z,4.50
2018-11-20T11:52:42.534Z,4.20
2018-11-20T11:55:42.567Z,4.20
2018-11-20T11:58:42.160Z,4.30
2018-11-20T12:04:35.519Z,3.70
2018-11-20T12:07:34.989Z,3.50
2018-11-20T12:10:36.398Z,3.80
2018-11-20T12:13:24.335Z,4.00
2018-11-20T12:16:31.785Z,4.10
2018-11-20T12:19:37.670Z,4.60
2018-11-20T12:22:37.912Z,4.50
2018-11-20T12:28:14.706Z,4.70
2018-11-20T12:31:12.899Z,4.80
2018-11-20T12:34:12.992Z,5.10
2018-11-20T12:37:18.766Z,5.40
2018-11-20T12:40:19.036Z,5.60
2018-11-20T12:43:19.266Z,6.20
2018-11-20T12:46:13.348Z,7.70
2018-11-20T12:49:13.580Z,8.70
2018-11-20T12:52:13.520Z,9.00
2018-11-20T12:55:13.505Z,8.30
2018-11-20T12:58:14.066Z,7.30
2018-11-20T13:01:12.100Z,8.30
2018-11-20T13:04:21.979Z,9.70
2018-11-20T13:07:17.908Z,11.20
2018-11-20T13:10:18.008Z,11.50
2018-11-20T13:13:15.680Z,11.90
2018-11-20T13:16:05.761Z,11.10
2018-11-20T13:19:11.750Z,12.20
2018-11-20T13:22:11.919Z,13.40
2018-11-20T13:25:06.235Z,13.80
2018-11-20T13:28:06.312Z,13.80
2018-11-20T13:31:06.118Z,13.80
2018-11-20T13:33:54.733Z,13.30
2018-11-20T13:37:02.126Z,13.00
2018-11-20T13:40:04.756Z,13.70
2018-11-20T13:46:18.756Z,14.40
2018-11-20T13:49:21.976Z,14.20
2018-11-20T13:52:21.631Z,13.00
2018-11-20T13:55:21.559Z,12.20
2018-11-20T13:58:21.692Z,12.60
2018-11-20T14:01:21.563Z,12.40
2018-11-20T14:04:10.085Z,12.10
2018-11-20T14:07:09.790Z,12.10
2018-11-20T14:10:09.853Z,12.40
2018-11-20T14:13:09.640Z,13.20
2018-11-20T14:16:12.866Z,12.50
2018-11-20T14:19:18.332Z,12.90
2018-11-20T14:22:19.017Z,13.50
2018-11-20T14:25:16.104Z,13.30
2018-11-20T14:28:15.638Z,13.30
2018-11-20T14:31:16.015Z,12.90
2018-11-20T14:34:15.590Z,12.20
2018-11-20T14:37:15.457Z,11.40
2018-11-20T14:40:07.773Z,10.50
2018-11-20T14:43:01.684Z,9.50
2018-11-20T14:46:10.543Z,8.70
2018-11-20T14:49:07.740Z,7.70
2018-11-20T14:52:13.894Z,7.30
2018-11-20T14:55:14.222Z,6.90
2018-11-20T14:58:14.319Z,6.30
2018-11-20T15:01:20.515Z,5.50
2018-11-20T15:04:20.673Z,4.50
2018-11-20T15:07:20.545Z,4.00
2018-11-20T15:10:20.790Z,3.70
2018-11-20T15:16:13.253Z,2.90
2018-11-20T15:22:23.080Z,2.30
2018-11-20T15:25:14.429Z,2.00
2018-11-20T15:28:22.137Z,1.80
2018-11-20T15:31:22.056Z,1.50
2018-11-20T15:34:22.324Z,1.30
2018-11-20T15:37:23.187Z,1.10
2018-11-20T15:40:32.565Z,0.90
2018-11-20T15:43:39.209Z,0.80
2018-11-20T15:46:39.001Z,0.60
2018-11-20T15:49:34.972Z,0.40
2018-11-20T15:52:30.089Z,0.30
2018-11-20T15:55:30.606Z,0.30
2018-11-20T15:58:30.463Z,0.10
2018-11-20T16:01:31.093Z,0.00
2018-11-20T16:04:31.016Z,-0.10
2018-11-20T16:07:31.211Z,-0.20
2018-11-20T16:10:31.439Z,-0.30
2018-11-20T16:13:34.313Z,-0.40
2018-11-20T16:16:34.340Z,-0.40
2018-11-20T16:19:34.386Z,-0.50
2018-11-20T16:22:42.097Z,-0.60
2018-11-20T16:25:41.983Z,-0.80
2018-11-20T16:28:42.620Z,-0.90
2018-11-20T16:31:34.280Z,-1.10
2018-11-20T16:34:34.760Z,-1.20
2018-11-20T16:37:28.383Z,-1.10
2018-11-20T16:43:29.789Z,-1.20
2018-11-20T16:46:32.418Z,-1.30
2018-11-20T16:49:32.357Z,-1.40
2018-11-20T16:52:38.429Z,-1.50
2018-11-20T16:55:41.546Z,-1.50
2018-11-20T16:58:41.358Z,-1.50
2018-11-20T17:04:10.575Z,-1.50
2018-11-20T17:09:44.137Z,-1.60
2018-11-20T17:12:32.505Z,-1.70
2018-11-20T17:15:43.295Z,-1.90
2018-11-20T17:18:46.191Z,-1.90
2018-11-20T17:24:48.238Z,-2.00
2018-11-20T17:27:51.467Z,-2.10
2018-11-20T17:30:52.111Z,-2.10
2018-11-20T17:33:51.801Z,-2.20
2018-11-20T17:37:02.483Z,-2.10
2018-11-20T17:39:51.582Z,-2.00
2018-11-20T17:42:45.011Z,-2.00
2018-11-20T17:45:25.895Z,-2.10
2018-11-20T17:48:37.474Z,-2.10
2018-11-20T17:54:19.836Z,-2.20
2018-11-20T17:57:20.134Z,-2.20
2018-11-20T18:00:19.793Z,-2.30
2018-11-20T18:03:03.456Z,-2.20
2018-11-20T18:05:52.018Z,-2.20
2018-11-20T18:08:35.570Z,-2.30
2018-11-20T18:11:35.396Z,-2.30
2018-11-20T18:14:36.268Z,-2.30
2018-11-20T18:17:36.146Z,-2.20
2018-11-20T18:20:39.127Z,-2.30
2018-11-20T18:26:48.117Z,-2.40
2018-11-20T18:29:38.076Z,-2.40
2018-11-20T18:32:45.532Z,-2.40
2018-11-20T18:35:34.616Z,-2.50
2018-11-20T18:38:42.162Z,-2.40
2018-11-20T18:41:41.681Z,-2.60
2018-11-20T18:44:41.326Z,-2.50
2018-11-20T18:47:41.158Z,-2.50
2018-11-20T18:50:41.335Z,-2.60
2018-11-20T18:53:44.570Z,-2.50
2018-11-20T18:56:33.013Z,-2.60
2018-11-20T18:59:40.460Z,-2.70
2018-11-20T19:02:40.762Z,-2.60
2018-11-20T19:05:40.410Z,-2.70
2018-11-20T19:08:47.780Z,-2.80
2018-11-20T19:14:36.339Z,-2.90
2018-11-20T19:17:36.368Z,-2.90
2018-11-20T19:23:32.408Z,-2.90
2018-11-20T19:26:20.991Z,-2.90
2018-11-20T19:29:09.408Z,-2.90
2018-11-20T19:31:53.234Z,-2.90
2018-11-20T19:34:33.451Z,-2.90
2018-11-20T19:37:39.188Z,-3.00
2018-11-20T19:40:39.896Z,-3.00
2018-11-20T19:43:40.094Z,-3.00
2018-11-20T19:49:23.764Z,-3.00
2018-11-20T19:52:12.190Z,-3.00
2018-11-20T19:54:58.876Z,-3.00
2018-11-20T19:57:58.425Z,-3.00
2018-11-20T20:01:04.656Z,-3.00
2018-11-20T20:07:06.106Z,-3.10
2018-11-20T20:09:45.778Z,-3.10
2018-11-20T20:12:38.453Z,-3.10
2018-11-20T20:15:45.830Z,-3.10
2018-11-20T20:21:54.085Z,-3.20
2018-11-20T20:24:54.402Z,-3.20
2018-11-20T20:27:54.581Z,-3.20
2018-11-20T20:30:42.992Z,-3.20
2018-11-20T20:33:46.374Z,-3.20
2018-11-20T20:36:35.849Z,-3.20
2018-11-20T20:39:35.714Z,-3.30
2018-11-20T20:45:25.734Z,-3.30
2018-11-20T20:48:35.856Z,-3.20
2018-11-20T20:51:33.404Z,-3.20
2018-11-20T20:54:39.094Z,-3.20
2018-11-20T20:57:40.120Z,-3.30
2018-11-20T21:00:50.357Z,-3.30
2018-11-20T21:07:06.594Z,-3.30
2018-11-20T21:10:13.652Z,-3.40
2018-11-20T21:13:14.003Z,-3.40
2018-11-20T21:16:20.642Z,-3.40
2018-11-20T21:19:23.163Z,-3.40
2018-11-20T21:22:12.084Z,-3.40
2018-11-20T21:25:19.582Z,-3.50
2018-11-20T21:28:26.982Z,-3.60
2018-11-20T21:31:29.570Z,-3.60
2018-11-20T21:34:38.178Z,-3.70
2018-11-20T21:37:43.826Z,-3.60
2018-11-20T21:40:44.178Z,-3.60
2018-11-20T21:46:33.703Z,-3.70
2018-11-20T21:49:22.329Z,-3.80
2018-11-20T21:52:31.322Z,-3.80
2018-11-20T21:55:33.532Z,-3.80
2018-11-20T21:58:42.012Z,-3.70
2018-11-20T22:07:25.288Z,-3.70
2018-11-20T22:10:13.814Z,-3.70
2018-11-20T22:16:39.713Z,-3.70
2018-11-20T22:19:39.425Z,-3.60
2018-11-20T22:22:39.125Z,-3.60
2018-11-20T22:25:44.817Z,-3.50
2018-11-20T22:31:48.865Z,-3.20
2018-11-20T22:34:29.919Z,-3.10
2018-11-20T22:37:32.346Z,-3.10
2018-11-20T22:40:31.945Z,-3.00
2018-11-20T22:43:32.029Z,-3.20
2018-11-20T22:46:32.308Z,-3.30
2018-11-20T22:52:19.347Z,-3.40
2018-11-20T22:55:01.228Z,-3.50
2018-11-20T22:58:01.176Z,-3.60
2018-11-20T23:01:02.060Z,-3.60
2018-11-20T23:04:01.938Z,-3.60
2018-11-20T23:07:04.678Z,-3.70
2018-11-20T23:09:45.932Z,-3.80
2018-11-20T23:12:15.741Z,-3.90
2018-11-20T23:15:06.022Z,-3.80
2018-11-20T23:17:47.557Z,-3.70
2018-11-20T23:20:28.443Z,-3.70
2018-11-20T23:23:10.071Z,-3.80
2018-11-20T23:25:52.622Z,-3.80
2018-11-20T23:28:22.452Z,-3.80
2018-11-20T23:31:11.540Z,-3.80
2018-11-20T23:33:53.084Z,-3.80
2018-11-20T23:36:22.954Z,-3.70
2018-11-20T23:39:11.808Z,-3.80
2018-11-20T23:41:53.149Z,-3.80
2018-11-20T23:44:41.978Z,-3.80
2018-11-20T23:47:30.816Z,-3.80
2018-11-20T23:50:13.062Z,-3.70
2018-11-20T23:52:54.709Z,-3.70
2018-11-20T23:55:36.717Z,-3.70
2018-11-20T23:58:18.125Z,-3.80
